New Paltz, NY (12561)

7:11 PM EST on December 03, 2016 (GMT -0500)
John St | | Change Station

Elev 344 ft 41.75 °N, 74.08 °W | Updated 4 seconds ago

Partly Cloudy
Partly Cloudy
40.5 °F
Feels Like 40 °F
N
1.1
Wind Variable Wind from NNW
Gusts 5.0 mph

Today
High -- | Low -- °F
--% Chance of Precip.
Yesterday
High -- | Low -- °F
Precip. -- in
Pressure 30.09 in
Visibility 10.0 miles
Clouds Few 5500 ft
Windchill 40 °F
Dew Point 28 °F
Humidity 61%
Rainfall Not available.
Snow Depth Not available.
7:06 AM 4:26 PM
Waxing Crescent, 18% visible
METAR KPOU 032353Z 31006KT 10SM FEW055 04/M03 A3010 RMK AO2 SLP189 T00391033 10072 20033 51017
Pressure 30.09 in
Visibility 10.0 miles
Clouds Few 5500 ft
Windchill 40 °F
Dew Point 28 °F
Humidity 61%
Rainfall Not available.
Snow Depth Not available.
7:06 AM 4:26 PM
Waxing Crescent, 18% visible
METAR KPOU 032353Z 31006KT 10SM FEW055 04/M03 A3010 RMK AO2 SLP189 T00391033 10072 20033 51017

10-Day Weather Forecast

Almanac

Astronomy

Dec. 03, 2016 Rise Set
Actual Time
Civil Twilight
Nautical Twilight
Astronomical Twilight
Moon
Length of Visible Light
Length of Day
Tomorrow will be .
, % of the Moon is Illuminated

Today's Extremes

State Highs State Lows

Community

WunderPhotos

Upload Photos

1,955,538 photos uploaded!

WunderBlog® & News

Nearby

Air Quality

  Air Quality AQ Index Pollutant
Not available.

Snow Depth

Station Depth Elevation

Earthquake Activity

City Distance Mag. Time & Date
Minimum magnitude displayed is 2.5.

Coastal Water Temperatures

Place Temperature

Stations

Nearby Weather Stations

Station Location Temp. Windchill Dew Point Humidity Wind Precip. Elev Updated Type
                   

Watches & Warnings

There are currently no watches in effect.